Time;durP1;ratioP1;P1;durP2;ratioP2;P2;SDS_P1;SDS_P2;PMS_P1;PMS_P2;Temp;Humidity;BMP_temperature;BMP_pressure;BME280_temperature;BME280_humidity;BME280_pressure;Samples;Min_cycle;Max_cycle;Signal;HPM_P1;HPM_P2
2023/02/13 00:02:06;;;;;;;34.42;13.88;;;8.30;48.00;;;;;;7568668;23;20006;-66
2023/02/13 00:05:07;;;;;;;26.00;11.52;;;8.30;48.10;;;;;;7568725;23;20081;-67
2023/02/13 00:08:08;;;;;;;24.85;12.02;;;8.20;48.30;;;;;;7572409;23;20017;-67
2023/02/13 00:11:09;;;;;;;27.55;13.13;;;8.20;48.50;;;;;;7549073;23;20013;-64
2023/02/13 00:14:10;;;;;;;35.65;13.60;;;8.20;48.50;;;;;;7572124;23;20011;-67
2023/02/13 00:17:11;;;;;;;41.35;14.00;;;8.10;48.50;;;;;;7568516;23;20048;-68
2023/02/13 00:20:13;;;;;;;31.75;12.13;;;8.10;48.60;;;;;;7568454;23;20002;-67
2023/02/13 00:23:14;;;;;;;30.15;12.38;;;8.20;48.70;;;;;;7542483;23;20006;-67
2023/02/13 00:26:16;;;;;;;32.00;12.52;;;8.10;48.80;;;;;;7568281;23;20012;-65
2023/02/13 00:29:18;;;;;;;33.67;13.15;;;8.10;48.90;;;;;;7543671;23;20007;-65
2023/02/13 00:32:19;;;;;;;46.30;13.68;;;8.10;49.00;;;;;;7519865;23;20112;-67
2023/02/13 00:35:21;;;;;;;26.45;12.50;;;8.10;49.00;;;;;;7542844;23;20018;-68
2023/02/13 00:38:22;;;;;;;31.73;12.90;;;8.10;49.00;;;;;;7567578;23;20033;-66
2023/02/13 00:41:23;;;;;;;29.42;11.95;;;8.00;49.00;;;;;;7518557;23;20007;-67
2023/02/13 00:44:25;;;;;;;23.10;10.63;;;8.00;49.00;;;;;;7518902;23;20002;-67
2023/02/13 00:47:28;;;;;;;28.05;12.07;;;8.00;49.10;;;;;;7541818;23;20455;-67
2023/02/13 00:50:29;;;;;;;29.45;10.82;;;8.00;49.20;;;;;;7567976;23;20006;-67
2023/02/13 00:53:31;;;;;;;34.95;12.88;;;8.00;49.30;;;;;;7568302;23;20073;-65
2023/02/13 00:56:32;;;;;;;29.60;9.57;;;7.90;49.40;;;;;;7542428;23;20407;-66
2023/02/13 00:59:33;;;;;;;31.70;12.73;;;7.90;49.50;;;;;;7541676;23;20049;-65
2023/02/13 01:02:35;;;;;;;27.25;11.35;;;7.90;49.70;;;;;;7567852;23;20061;-65
2023/02/13 01:05:36;;;;;;;30.30;13.18;;;7.80;49.90;;;;;;7542505;23;20010;-67
2023/02/13 01:08:41;;;;;;;28.90;11.48;;;7.70;50.00;;;;;;7543244;23;20015;-65
2023/02/13 01:11:42;;;;;;;25.80;11.13;;;7.70;50.20;;;;;;7544338;23;20361;-67
2023/02/13 01:14:43;;;;;;;24.65;10.57;;;7.60;50.40;;;;;;7569483;23;20014;-66
2023/02/13 01:17:45;;;;;;;29.15;10.85;;;7.60;50.60;;;;;;7569006;23;20429;-66
2023/02/13 01:20:57;;;;;;;28.55;12.07;;;7.50;50.60;;;;;;7567533;23;20006;-66
2023/02/13 01:24:03;;;;;;;29.33;10.85;;;7.50;50.60;;;;;;7567475;23;20484;-67
2023/02/13 01:27:04;;;;;;;30.85;11.10;;;7.50;50.60;;;;;;7567432;23;20009;-65
2023/02/13 01:30:12;;;;;;;26.27;12.35;;;7.50;50.70;;;;;;7567247;23;20006;-66
2023/02/13 01:33:13;;;;;;;27.27;11.65;;;7.50;50.80;;;;;;7567280;23;20006;-66
2023/02/13 01:36:14;;;;;;;21.05;11.73;;;7.50;50.80;;;;;;7541356;23;20017;-66
2023/02/13 01:39:15;;;;;;;37.03;12.48;;;7.50;51.00;;;;;;7566943;23;20011;-67
2023/02/13 01:42:28;;;;;;;28.20;12.52;;;7.40;51.00;;;;;;7567124;23;20006;-66
2023/02/13 01:45:30;;;;;;;14.90;7.80;;;7.40;51.20;;;;;;7541412;23;20011;-67
2023/02/13 01:48:31;;;;;;;29.88;11.25;;;7.40;51.30;;;;;;7567293;23;20057;-65
2023/02/13 01:51:35;;;;;;;30.40;10.73;;;7.40;51.50;;;;;;7541691;23;20017;-66
2023/02/13 01:54:36;;;;;;;21.63;9.52;;;7.30;51.50;;;;;;7541472;23;20308;-66
2023/02/13 01:57:39;;;;;;;26.75;10.88;;;7.20;51.50;;;;;;7541155;23;20017;-66
2023/02/13 02:00:41;;;;;;;25.77;9.48;;;7.30;51.50;;;;;;7541585;23;20010;-66
2023/02/13 02:03:46;;;;;;;24.52;10.68;;;7.30;51.50;;;;;;7567984;23;20380;-65
2023/02/13 02:06:58;;;;;;;27.38;11.43;;;7.20;51.60;;;;;;7517994;23;20025;-65
2023/02/13 02:10:12;;;;;;;19.85;10.23;;;7.10;51.70;;;;;;7541527;23;20015;-65
2023/02/13 02:13:20;;;;;;;27.50;9.75;;;7.10;51.90;;;;;;7541612;23;20010;-66
2023/02/13 02:16:22;;;;;;;28.33;10.83;;;7.00;52.10;;;;;;7541130;23;20017;-65
2023/02/13 02:19:53;;;;;;;28.92;11.82;;;7.00;52.20;;;;;;7568043;23;20109;-65
2023/02/13 02:23:09;;;;;;;23.95;10.82;;;6.90;52.30;;;;;;7567548;23;20332;-66
2023/02/13 02:26:31;;;;;;;30.27;10.35;;;6.90;52.30;;;;;;7567639;23;20082;-66
2023/02/13 02:30:01;;;;;;;21.48;10.07;;;6.90;52.30;;;;;;7567446;23;20400;-66
2023/02/13 02:33:21;;;;;;;30.45;12.00;;;6.90;52.40;;;;;;7573735;23;20018;-67
2023/02/13 02:36:33;;;;;;;30.98;11.45;;;6.90;52.50;;;;;;7545308;23;20021;-67
2023/02/13 02:40:11;;;;;;;28.85;11.55;;;6.90;52.70;;;;;;7555014;23;20058;-66
2023/02/13 02:43:17;;;;;;;33.83;12.43;;;6.80;52.90;;;;;;7565488;23;20013;-67
2023/02/13 02:46:38;;;;;;;24.50;11.55;;;6.70;53.10;;;;;;7565099;23;20089;-65
2023/02/13 02:50:00;;;;;;;30.55;10.35;;;6.70;53.20;;;;;;7541140;23;20093;-65
2023/02/13 02:53:28;;;;;;;30.70;11.57;;;6.70;53.40;;;;;;7565228;23;20341;-65
2023/02/13 02:56:42;;;;;;;28.67;11.38;;;6.60;53.40;;;;;;7564861;23;20089;-65
2023/02/13 03:06:56;;;;;;;27.63;10.68;;;6.60;53.60;;;;;;7503101;23;20011;-66
2023/02/13 03:13:44;;;;;;;26.20;10.10;;;6.60;53.60;;;;;;7503344;23;20045;-65
2023/02/13 03:23:59;;;;;;;22.77;10.55;;;6.50;53.90;;;;;;7527291;23;20058;-66
2023/02/13 03:30:58;;;;;;;29.17;11.38;;;6.50;54.10;;;;;;7527132;23;20034;-65
2023/02/13 03:34:18;;;;;;;27.08;10.90;;;6.40;54.30;;;;;;7547796;23;20085;-66
2023/02/13 03:44:29;;;;;;;32.97;11.45;;;6.30;54.60;;;;;;7566642;23;20089;-65
2023/02/13 03:47:30;;;;;;;21.20;7.07;;;6.20;54.70;;;;;;7566002;23;20010;-66
2023/02/13 03:50:31;;;;;;;26.73;10.40;;;6.20;54.80;;;;;;7565079;23;20353;-67
2023/02/13 03:53:35;;;;;;;31.42;11.73;;;6.20;54.80;;;;;;7564666;23;20340;-66
2023/02/13 04:00:02;;;;;;;25.00;9.38;;;6.20;54.70;;;;;;7568936;23;20344;-66
2023/02/13 04:03:15;;;;;;;31.25;11.57;;;6.30;54.80;;;;;;7567204;23;20092;-65
2023/02/13 04:06:23;;;;;;;23.85;10.35;;;6.30;54.70;;;;;;7567497;23;20017;-66
2023/02/13 04:09:26;;;;;;;23.80;10.80;;;6.30;54.60;;;;;;7577457;23;20097;-65
2023/02/13 04:12:49;;;;;;;28.23;9.73;;;6.30;54.50;;;;;;7550276;23;20324;-66
2023/02/13 04:15:58;;;;;;;38.50;11.45;;;6.30;54.50;;;;;;7566859;23;20017;-66
2023/02/13 04:19:00;;;;;;;30.27;10.80;;;6.30;54.60;;;;;;7566030;23;20320;-67
2023/02/13 04:22:01;;;;;;;27.80;10.32;;;6.30;54.70;;;;;;7567979;23;20014;-66
2023/02/13 04:25:02;;;;;;;28.73;12.05;;;6.30;54.80;;;;;;7566285;23;20010;-66
2023/02/13 04:28:04;;;;;;;24.33;10.40;;;6.20;55.40;;;;;;7542124;23;20377;-66
2023/02/13 04:31:05;;;;;;;24.30;10.10;;;6.20;54.90;;;;;;7567883;23;20007;-65
2023/02/13 04:34:06;;;;;;;27.70;11.10;;;6.10;54.90;;;;;;7566287;23;20014;-66
2023/02/13 04:37:07;;;;;;;23.27;10.35;;;6.10;55.00;;;;;;7567338;23;20018;-66
2023/02/13 04:40:09;;;;;;;29.08;11.80;;;6.00;55.10;;;;;;7566401;23;20045;-66
2023/02/13 04:43:10;;;;;;;27.63;13.25;;;6.00;55.20;;;;;;7568223;23;20368;-66
2023/02/13 04:46:11;;;;;;;28.73;10.20;;;6.00;55.40;;;;;;7568486;23;20491;-66
2023/02/13 04:49:12;;;;;;;29.63;11.02;;;5.90;55.50;;;;;;7568854;23;20007;-66
2023/02/13 04:52:16;;;;;;;24.52;11.00;;;5.90;55.50;;;;;;7572513;23;20010;-65
2023/02/13 04:55:17;;;;;;;30.92;10.50;;;5.90;55.50;;;;;;7571346;23;20081;-66
2023/02/13 04:58:18;;;;;;;35.35;11.70;;;5.90;55.40;;;;;;7567664;23;20016;-65
2023/02/13 05:01:19;;;;;;;24.67;11.40;;;5.90;55.30;;;;;;7566373;23;20053;-66
2023/02/13 05:04:21;;;;;;;21.58;9.15;;;6.00;55.30;;;;;;7567688;23;20015;-65
2023/02/13 05:07:22;;;;;;;29.10;11.00;;;6.10;55.40;;;;;;7567353;23;20017;-65
2023/02/13 05:10:23;;;;;;;26.85;10.52;;;6.00;55.20;;;;;;7567609;23;20048;-67
2023/02/13 05:13:24;;;;;;;23.45;10.45;;;6.10;55.20;;;;;;7567813;23;20112;-66
2023/02/13 05:16:25;;;;;;;19.65;9.20;;;6.10;55.20;;;;;;7567430;23;20416;-66
2023/02/13 05:19:26;;;;;;;24.25;10.23;;;6.10;55.20;;;;;;7567249;23;20437;-66
2023/02/13 05:25:46;;;;;;;19.15;9.57;;;6.20;55.20;;;;;;7567442;23;20073;-66
2023/02/13 05:32:07;;;;;;;26.08;9.70;;;6.10;55.20;;;;;;7567271;23;20006;-66
2023/02/13 05:35:08;;;;;;;36.70;9.88;;;6.10;55.20;;;;;;7565864;23;20006;-66
2023/02/13 05:38:09;;;;;;;27.65;9.95;;;6.10;55.30;;;;;;7565264;23;20014;-66
2023/02/13 05:41:12;;;;;;;24.55;9.70;;;6.10;55.40;;;;;;7541711;23;20011;-67
2023/02/13 05:44:14;;;;;;;22.15;9.05;;;6.00;55.40;;;;;;7567195;23;20332;-66
2023/02/13 05:47:15;;;;;;;21.95;9.20;;;6.00;55.50;;;;;;7541273;23;20010;-66
2023/02/13 05:50:16;;;;;;;25.15;10.95;;;6.00;55.60;;;;;;7541792;23;20013;-66
2023/02/13 05:53:17;;;;;;;27.75;10.07;;;5.90;55.60;;;;;;7542173;23;20089;-65
2023/02/13 05:56:18;;;;;;;30.77;10.10;;;6.00;55.70;;;;;;7567255;23;20006;-65
2023/02/13 05:59:19;;;;;;;29.42;10.05;;;6.00;55.60;;;;;;7541165;23;20010;-64
2023/02/13 06:02:21;;;;;;;23.52;10.05;;;6.00;55.50;;;;;;7541447;23;20021;-66
2023/02/13 06:05:22;;;;;;;27.08;9.63;;;6.00;55.40;;;;;;7517878;23;20007;-67
2023/02/13 06:08:23;;;;;;;19.38;8.80;;;6.10;55.30;;;;;;7566626;23;20006;-67
2023/02/13 06:11:24;;;;;;;20.95;9.13;;;6.00;55.30;;;;;;7567331;23;20510;-65
2023/02/13 06:14:25;;;;;;;24.17;9.80;;;6.00;55.30;;;;;;7566935;23;20007;-66
2023/02/13 06:17:26;;;;;;;25.15;9.63;;;6.00;55.40;;;;;;7566630;23;20040;-66
2023/02/13 06:20:27;;;;;;;29.75;10.88;;;6.00;55.40;;;;;;7541218;23;20013;-66
2023/02/13 06:23:28;;;;;;;29.58;9.75;;;5.90;55.50;;;;;;7567106;23;20025;-66
2023/02/13 06:26:30;;;;;;;21.65;10.30;;;5.90;55.60;;;;;;7566781;23;20514;-67
2023/02/13 06:29:31;;;;;;;23.55;8.70;;;5.90;55.70;;;;;;7566814;23;20025;-68
2023/02/13 06:32:32;;;;;;;26.40;9.63;;;5.90;55.80;;;;;;7541211;23;20017;-64
2023/02/13 06:35:34;;;;;;;21.23;8.43;;;5.90;55.80;;;;;;7566975;23;20357;-66
2023/02/13 06:38:35;;;;;;;26.92;8.98;;;5.90;55.80;;;;;;7540876;23;20017;-66
2023/02/13 06:41:36;;;;;;;26.27;9.98;;;5.90;55.80;;;;;;7541449;23;20006;-67
2023/02/13 06:44:37;;;;;;;22.80;8.40;;;5.90;55.80;;;;;;7542032;23;20147;-66
2023/02/13 06:47:43;;;;;;;31.88;10.55;;;5.90;55.90;;;;;;7566585;23;20006;-68
2023/02/13 06:50:44;;;;;;;20.35;7.82;;;5.80;55.80;;;;;;7566513;23;20310;-68
2023/02/13 06:53:45;;;;;;;23.90;8.85;;;5.80;55.90;;;;;;7541489;23;20082;-67
2023/02/13 06:56:46;;;;;;;18.75;9.30;;;5.80;55.90;;;;;;7566972;23;20344;-66
2023/02/13 06:59:47;;;;;;;26.42;9.10;;;5.80;55.90;;;;;;7520827;23;20022;-65
2023/02/13 07:02:48;;;;;;;24.25;9.88;;;5.80;56.00;;;;;;7546823;23;20007;-67
2023/02/13 07:05:50;;;;;;;22.33;8.43;;;5.80;56.10;;;;;;7542223;23;20010;-67
2023/02/13 07:08:54;;;;;;;32.83;10.63;;;5.80;56.10;;;;;;7541951;23;20017;-65
2023/02/13 07:11:55;;;;;;;30.55;9.93;;;5.80;56.10;;;;;;7545306;23;20014;-66
2023/02/13 07:14:56;;;;;;;25.33;8.80;;;5.80;56.10;;;;;;7542930;23;20042;-66
2023/02/13 07:17:58;;;;;;;26.48;9.65;;;5.90;56.10;;;;;;7566708;23;20026;-67
2023/02/13 07:20:59;;;;;;;22.20;9.40;;;5.90;56.00;;;;;;7566787;23;20436;-66
2023/02/13 07:24:00;;;;;;;18.10;9.20;;;5.90;56.00;;;;;;7540926;23;20124;-66
2023/02/13 07:27:01;;;;;;;25.25;9.50;;;5.90;56.00;;;;;;7540434;23;20022;-68
2023/02/13 07:30:03;;;;;;;31.27;10.25;;;5.90;55.90;;;;;;7566555;23;20014;-67
2023/02/13 07:33:04;;;;;;;20.27;8.40;;;6.00;55.90;;;;;;7567197;23;20090;-67
2023/02/13 07:36:06;;;;;;;31.42;9.95;;;6.00;55.80;;;;;;7568804;23;20459;-65
2023/02/13 07:39:07;;;;;;;24.00;9.88;;;5.90;55.80;;;;;;7568046;23;20011;-65
2023/02/13 07:42:08;;;;;;;34.80;9.55;;;5.90;55.90;;;;;;7568760;23;20002;-68
2023/02/13 07:45:11;;;;;;;22.88;9.38;;;5.90;56.10;;;;;;7543054;23;20409;-67
2023/02/13 07:48:12;;;;;;;20.92;7.35;;;5.10;55.70;;;;;;7542337;23;20014;-66
2023/02/13 07:51:13;;;;;;;22.08;8.85;;;5.90;56.20;;;;;;7568750;23;20010;-66
2023/02/13 07:54:14;;;;;;;23.55;8.85;;;5.90;56.30;;;;;;7543206;23;20081;-67
2023/02/13 07:57:16;;;;;;;20.05;9.57;;;6.00;56.30;;;;;;7567842;23;20058;-67
2023/02/13 08:00:18;;;;;;;16.25;7.10;;;6.10;56.20;;;;;;7568740;23;20003;-66
2023/02/13 08:03:19;;;;;;;27.52;8.65;;;6.10;55.90;;;;;;7542977;23;20034;-67
2023/02/13 08:06:20;;;;;;;28.17;9.60;;;6.20;55.80;;;;;;7568524;23;20211;-66
2023/02/13 08:12:41;;;;;;;22.75;8.65;;;6.40;55.60;;;;;;7568375;23;20089;-68
2023/02/13 08:15:43;;;;;;;16.75;9.38;;;6.50;55.40;;;;;;7568383;23;20032;-68
2023/02/13 08:18:44;;;;;;;21.00;8.20;;;6.60;55.30;;;;;;7542828;23;20081;-68
2023/02/13 08:21:45;;;;;;;24.30;10.02;;;6.70;55.10;;;;;;7542044;23;20475;-66
2023/02/13 08:24:46;;;;;;;23.63;9.57;;;6.90;55.00;;;;;;7568049;23;20061;-68
2023/02/13 08:27:48;;;;;;;24.15;10.10;;;6.90;54.70;;;;;;7567398;23;20510;-66
2023/02/13 08:30:49;;;;;;;24.30;10.02;;;7.10;54.60;;;;;;7542447;23;20345;-66
2023/02/13 08:33:50;;;;;;;31.20;10.27;;;7.20;54.30;;;;;;7567559;23;20018;-67
2023/02/13 08:36:51;;;;;;;34.30;11.48;;;7.30;54.10;;;;;;7567627;23;20022;-67
2023/02/13 08:39:52;;;;;;;22.85;9.82;;;7.30;53.90;;;;;;7567208;23;20385;-68
2023/02/13 08:43:00;;;;;;;20.85;9.55;;;7.40;53.80;;;;;;7567639;23;20050;-66
2023/02/13 08:46:01;;;;;;;16.63;6.45;;;7.50;53.60;;;;;;7542118;23;20046;-66
2023/02/13 08:49:02;;;;;;;26.20;10.13;;;7.50;53.40;;;;;;7567487;23;20010;-67
2023/02/13 08:52:04;;;;;;;22.25;9.32;;;7.60;53.40;;;;;;7542335;23;20032;-66
2023/02/13 08:55:05;;;;;;;26.33;9.40;;;7.70;53.20;;;;;;7542395;23;20017;-67
2023/02/13 08:58:06;;;;;;;29.67;11.10;;;7.70;53.00;;;;;;7541963;23;20002;-68
2023/02/13 09:01:08;;;;;;;36.20;11.65;;;7.80;52.90;;;;;;7568024;23;20508;-65
2023/02/13 09:04:09;;;;;;;28.33;10.02;;;7.90;52.80;;;;;;7567395;23;20188;-66
2023/02/13 09:07:11;;;;;;;18.55;8.82;;;8.00;52.60;;;;;;7567436;23;20392;-66
2023/02/13 09:10:12;;;;;;;27.80;10.50;;;8.20;52.60;;;;;;7568026;23;20007;-67
2023/02/13 09:13:13;;;;;;;21.75;9.05;;;8.30;52.30;;;;;;7567824;23;20003;-66
2023/02/13 09:16:15;;;;;;;24.95;8.02;;;8.50;52.00;;;;;;7542196;23;20006;-66
2023/02/13 09:19:18;;;;;;;27.95;9.05;;;8.60;51.70;;;;;;7567513;23;20010;-66
2023/02/13 09:22:19;;;;;;;31.00;10.52;;;8.60;51.30;;;;;;7541829;23;20017;-66
2023/02/13 09:25:21;;;;;;;25.52;10.75;;;8.80;51.20;;;;;;7567541;23;20424;-66
2023/02/13 09:28:22;;;;;;;25.60;10.07;;;8.80;51.10;;;;;;7543713;23;20010;-68
2023/02/13 09:31:23;;;;;;;38.35;10.80;;;8.90;50.90;;;;;;7570373;23;20006;-67
2023/02/13 09:34:25;;;;;;;24.25;10.20;;;9.10;50.70;;;;;;7567066;23;20731;-67
2023/02/13 09:37:26;;;;;;;32.47;10.57;;;9.10;50.60;;;;;;7566449;23;20014;-66
2023/02/13 09:40:33;;;;;;;28.05;10.00;;;9.20;50.50;;;;;;7563622;23;20014;-67
2023/02/13 09:44:01;;;;;;;30.35;9.68;;;9.30;50.50;;;;;;7567347;23;20011;-67
2023/02/13 09:47:15;;;;;;;37.15;10.15;;;9.40;50.10;;;;;;7566902;23;20372;-67
2023/02/13 09:50:34;;;;;;;23.25;8.98;;;9.50;49.90;;;;;;7566514;23;20020;-67
2023/02/13 09:53:37;;;;;;;24.65;9.52;;;9.50;49.80;;;;;;7569948;23;20034;-67
2023/02/13 09:56:54;;;;;;;29.30;9.50;;;9.60;49.60;;;;;;7571357;23;20041;-66
2023/02/13 09:59:58;;;;;;;23.05;9.15;;;9.70;49.50;;;;;;7569342;23;20010;-66
2023/02/13 10:03:00;;;;;;;24.85;9.40;;;9.80;49.20;;;;;;7541719;23;20428;-67
2023/02/13 10:06:16;;;;;;;29.25;8.70;;;9.90;49.10;;;;;;7566786;23;20017;-66
2023/02/13 10:09:41;;;;;;;26.77;9.18;;;10.10;49.00;;;;;;7566565;23;20010;-66
2023/02/13 10:12:51;;;;;;;24.42;10.23;;;10.20;48.60;;;;;;7565093;23;20061;-66
2023/02/13 10:16:27;;;;;;;29.27;10.20;;;10.20;48.20;;;;;;7566915;23;20020;-67
2023/02/13 10:19:42;;;;;;;23.80;8.68;;;10.30;48.10;;;;;;7491971;23;20011;-66
2023/02/13 10:22:50;;;;;;;24.50;9.80;;;10.40;48.20;;;;;;7491898;23;20021;-67
2023/02/13 10:25:56;;;;;;;21.80;9.52;;;10.50;48.20;;;;;;7468661;23;20011;-67
2023/02/13 10:33:17;;;;;;;21.60;8.15;;;11.30;47.30;;;;;;7491821;23;20109;-66
2023/02/13 10:36:21;;;;;;;27.42;9.88;;;11.80;45.90;;;;;;7398209;24;20039;-67
2023/02/13 10:39:25;;;;;;;17.33;8.80;;;12.10;45.10;;;;;;7421136;24;20020;-65
2023/02/13 10:42:43;;;;;;;23.50;9.60;;;12.30;44.80;;;;;;7374675;24;20319;-67
2023/02/13 10:46:16;;;;;;;16.55;7.22;;;12.60;44.40;;;;;;7398484;24;20445;-67
2023/02/13 10:49:41;;;;;;;23.00;7.68;;;12.80;43.60;;;;;;7421280;24;20041;-66
2023/02/13 10:53:04;;;;;;;14.25;6.32;;;13.00;43.40;;;;;;7421536;24;20091;-67
2023/02/13 10:56:19;;;;;;;21.08;6.05;;;13.10;42.80;;;;;;7454682;23;20080;-66
2023/02/13 10:59:46;;;;;;;17.77;7.55;;;13.40;42.30;;;;;;7456074;23;20042;-67
2023/02/13 11:02:47;;;;;;;21.98;6.95;;;13.60;41.80;;;;;;7456564;23;20018;-67
2023/02/13 11:05:49;;;;;;;21.55;7.15;;;13.80;42.00;;;;;;7456862;23;20309;-66
2023/02/13 11:08:51;;;;;;;18.25;5.47;;;14.00;41.60;;;;;;7434674;23;20031;-68
2023/02/13 11:11:53;;;;;;;12.70;6.53;;;14.40;40.90;;;;;;7441475;23;20440;-66
2023/02/13 11:14:55;;;;;;;16.27;5.40;;;14.60;40.00;;;;;;7568818;23;20420;-68
2023/02/13 11:18:01;;;;;;;18.08;7.22;;;14.90;39.70;;;;;;7566804;23;20010;-67
2023/02/13 11:21:08;;;;;;;15.20;5.80;;;15.20;39.40;;;;;;7568700;23;20432;-68
2023/02/13 11:24:27;;;;;;;13.32;5.40;;;15.60;38.80;;;;;;7568801;23;20337;-66
2023/02/13 11:27:34;;;;;;;21.52;6.97;;;16.00;38.40;;;;;;7567042;23;20037;-67
2023/02/13 11:30:37;;;;;;;18.90;7.63;;;16.50;37.50;;;;;;7569155;23;20447;-67
2023/02/13 11:33:38;;;;;;;14.95;6.38;;;17.00;36.70;;;;;;7567399;23;20117;-66
2023/02/13 11:36:39;;;;;;;16.17;6.43;;;17.50;35.80;;;;;;7568852;23;20003;-66
2023/02/13 11:39:42;;;;;;;20.58;6.47;;;17.90;35.60;;;;;;7568198;23;20014;-66
2023/02/13 11:42:45;;;;;;;14.65;5.82;;;18.40;34.10;;;;;;7543330;23;20456;-67
2023/02/13 11:45:46;;;;;;;21.40;5.78;;;18.90;32.90;;;;;;7569092;23;20020;-67
2023/02/13 11:49:21;;;;;;;14.93;6.22;;;19.20;31.70;;;;;;7570287;23;20429;-66
2023/02/13 11:52:26;;;;;;;14.75;5.95;;;19.60;31.40;;;;;;7549465;23;20456;-66
2023/02/13 11:55:39;;;;;;;11.68;5.35;;;20.20;30.20;;;;;;7543159;23;20018;-67
2023/02/13 11:58:41;;;;;;;18.63;5.88;;;20.40;29.40;;;;;;7542855;23;20014;-68
2023/02/13 12:01:47;;;;;;;11.38;5.25;;;20.80;29.30;;;;;;7567934;23;20105;-65
2023/02/13 12:04:52;;;;;;;15.57;5.72;;;21.30;28.70;;;;;;7568039;23;20007;-67
2023/02/13 12:08:00;;;;;;;10.65;4.90;;;21.60;28.10;;;;;;7543064;23;20038;-69
2023/02/13 12:11:13;;;;;;;13.50;5.07;;;22.00;27.60;;;;;;7567773;23;20014;-66
2023/02/13 12:14:24;;;;;;;10.50;5.90;;;22.30;27.30;;;;;;7568096;23;20006;-65
2023/02/13 12:17:29;;;;;;;14.55;5.43;;;22.60;26.80;;;;;;7567663;23;20081;-68
2023/02/13 12:21:10;;;;;;;13.82;5.07;;;22.90;26.80;;;;;;7541980;23;20021;-66
2023/02/13 12:24:33;;;;;;;17.85;5.90;;;22.80;26.80;;;;;;7542191;23;20018;-66
2023/02/13 12:27:41;;;;;;;12.38;6.53;;;22.40;27.30;;;;;;7541584;23;20014;-67
2023/02/13 12:31:01;;;;;;;14.88;5.60;;;22.10;27.50;;;;;;7541700;23;20158;-67
2023/02/13 12:34:29;;;;;;;14.07;5.70;;;21.80;27.60;;;;;;7541580;23;20013;-67
2023/02/13 12:37:57;;;;;;;11.60;5.50;;;21.30;27.60;;;;;;7541619;23;20345;-67
2023/02/13 12:41:19;;;;;;;15.93;5.30;;;21.00;27.90;;;;;;7567582;23;20448;-65
2023/02/13 12:44:20;;;;;;;12.38;4.70;;;20.80;28.00;;;;;;7542588;23;20011;-67
2023/02/13 12:47:26;;;;;;;12.98;5.78;;;20.50;28.00;;;;;;7541493;23;20085;-68
2023/02/13 12:50:33;;;;;;;13.23;5.28;;;20.10;28.20;;;;;;7569695;23;20030;-67
2023/02/13 12:53:55;;;;;;;12.02;5.32;;;19.80;28.40;;;;;;7570545;23;20014;-66
2023/02/13 12:57:21;;;;;;;13.35;6.32;;;19.60;28.80;;;;;;7568719;23;20006;-66
2023/02/13 13:00:40;;;;;;;13.55;6.05;;;19.40;29.10;;;;;;7567478;23;20002;-67
2023/02/13 13:03:56;;;;;;;13.87;5.90;;;19.10;29.40;;;;;;7541550;23;20466;-66
2023/02/13 13:07:24;;;;;;;11.35;5.28;;;18.70;29.50;;;;;;7542024;23;20235;-67
2023/02/13 13:11:05;;;;;;;13.20;5.43;;;18.30;29.80;;;;;;7567309;23;20002;-66
2023/02/13 13:14:38;;;;;;;12.88;5.72;;;18.00;30.20;;;;;;7492323;23;20007;-67
2023/02/13 13:18:03;;;;;;;19.00;8.43;;;17.80;30.50;;;;;;7468086;23;20444;-67
2023/02/13 13:21:24;;;;;;;15.40;5.28;;;17.60;30.70;;;;;;7492616;23;20015;-67
2023/02/13 13:24:51;;;;;;;14.60;5.25;;;17.40;31.00;;;;;;7492129;23;20079;-66
2023/02/13 13:27:58;;;;;;;15.60;7.60;;;17.20;31.20;;;;;;7491896;23;20011;-66
2023/02/13 13:30:59;;;;;;;12.10;6.10;;;17.20;31.40;;;;;;7468219;23;20094;-67
2023/02/13 13:34:04;;;;;;;20.30;5.45;;;17.10;31.40;;;;;;7492237;23;20015;-68
2023/02/13 13:37:21;;;;;;;13.88;5.43;;;17.10;31.50;;;;;;7468008;23;20012;-68
2023/02/13 13:40:50;;;;;;;11.88;4.88;;;17.00;31.40;;;;;;7501109;23;20014;-66
2023/02/13 13:44:08;;;;;;;8.95;4.20;;;17.00;31.20;;;;;;7527628;23;20014;-67
2023/02/13 13:47:28;;;;;;;10.70;4.83;;;17.00;31.30;;;;;;7526930;23;20410;-67
2023/02/13 13:50:32;;;;;;;14.85;4.60;;;16.90;31.20;;;;;;7552726;23;20763;-68
2023/02/13 13:53:34;;;;;;;12.45;4.03;;;16.90;31.30;;;;;;7566735;23;20010;-65
2023/02/13 13:57:00;;;;;;;13.57;4.93;;;17.00;31.40;;;;;;7566742;23;20007;-66
2023/02/13 14:00:23;;;;;;;10.90;4.60;;;17.00;31.40;;;;;;7566450;23;20010;-68
2023/02/13 14:03:35;;;;;;;11.02;4.32;;;17.00;31.40;;;;;;7566918;23;20002;-65
2023/02/13 14:06:44;;;;;;;8.88;4.03;;;16.90;31.20;;;;;;7566361;23;20010;-65
2023/02/13 14:09:45;;;;;;;12.73;4.88;;;16.90;31.10;;;;;;7566271;23;20011;-66
2023/02/13 14:12:56;;;;;;;14.25;4.88;;;16.90;30.90;;;;;;7565360;23;20062;-67
2023/02/13 14:15:57;;;;;;;8.50;4.07;;;16.90;31.00;;;;;;7567682;23;20002;-67
2023/02/13 14:18:58;;;;;;;13.50;4.63;;;16.90;30.80;;;;;;7566350;23;20062;-67
2023/02/13 14:22:17;;;;;;;9.38;4.55;;;16.90;30.70;;;;;;7571925;23;20007;-65
2023/02/13 14:25:27;;;;;;;10.32;4.55;;;16.90;30.50;;;;;;7573606;23;20006;-68
2023/02/13 14:28:28;;;;;;;15.10;5.43;;;16.90;30.50;;;;;;7568256;23;20102;-67
2023/02/13 14:31:52;;;;;;;11.57;4.32;;;17.00;30.70;;;;;;7566489;23;20448;-67
2023/02/13 14:34:58;;;;;;;13.45;4.47;;;17.00;30.70;;;;;;7566766;23;20010;-67
2023/02/13 14:38:01;;;;;;;17.52;5.15;;;17.00;30.60;;;;;;7566056;23;20010;-68
2023/02/13 14:41:03;;;;;;;8.23;4.43;;;17.00;30.60;;;;;;7566227;23;20078;-67
2023/02/13 14:44:04;;;;;;;11.38;3.88;;;17.00;30.60;;;;;;7566046;23;20066;-68
2023/02/13 14:47:23;;;;;;;16.50;5.80;;;17.10;30.30;;;;;;7565582;23;20006;-66
2023/02/13 14:50:44;;;;;;;42.83;14.85;;;17.10;30.10;;;;;;7517928;23;20006;-68
2023/02/13 14:53:53;;;;;;;18.13;5.10;;;17.10;30.20;;;;;;7541161;23;20006;-67
2023/02/13 14:56:59;;;;;;;;;;;17.00;30.30;;;;;;7541113;23;20010;-66
2023/02/13 15:00:13;;;;;;;24.52;5.03;;;17.00;30.30;;;;;;7566700;23;19915;-67
2023/02/13 15:03:36;;;;;;;13.75;4.55;;;17.00;30.20;;;;;;7540988;23;20058;-67
2023/02/13 15:06:41;;;;;;;16.20;5.00;;;17.00;30.20;;;;;;7517278;23;20013;-66
2023/02/13 15:09:55;;;;;;;15.95;5.03;;;17.00;30.30;;;;;;7566256;23;20022;-66
2023/02/13 15:12:58;;;;;;;11.38;4.78;;;16.90;30.40;;;;;;7540857;23;20018;-66
2023/02/13 15:16:04;;;;;;;10.50;4.70;;;17.00;30.50;;;;;;7566233;23;20010;-66
2023/02/13 15:19:05;;;;;;;12.55;4.80;;;17.00;30.70;;;;;;7565799;23;20007;-68
2023/02/13 15:22:06;;;;;;;12.82;4.07;;;16.90;30.70;;;;;;7566513;23;20013;-67
2023/02/13 15:25:08;;;;;;;12.18;4.78;;;16.90;30.70;;;;;;7565958;23;20050;-67
2023/02/13 15:28:20;;;;;;;24.45;5.20;;;16.90;30.80;;;;;;7566012;23;20007;-66
2023/02/13 15:31:23;;;;;;;8.90;4.82;;;16.90;30.90;;;;;;7566069;23;20014;-66
2023/02/13 15:34:33;;;;;;;18.13;5.82;;;16.90;31.00;;;;;;7540961;23;20022;-67
2023/02/13 15:37:33;;;;;;;13.77;5.35;;;16.80;31.00;;;;;;7540372;23;20437;-67
2023/02/13 15:40:40;;;;;;;16.73;5.40;;;16.80;30.90;;;;;;7566412;23;20006;-67
2023/02/13 15:43:51;;;;;;;14.05;5.40;;;16.80;31.70;;;;;;7566645;23;20007;-67
2023/02/13 15:46:54;;;;;;;13.60;5.38;;;16.80;31.20;;;;;;7566698;23;20694;-66
2023/02/13 15:49:55;;;;;;;9.45;4.80;;;16.80;31.30;;;;;;7541485;23;20016;-66
2023/02/13 15:52:58;;;;;;;18.15;5.18;;;16.80;31.30;;;;;;7566743;23;20014;-66
2023/02/13 15:56:04;;;;;;;13.07;4.90;;;16.70;31.40;;;;;;7570213;23;20081;-67
2023/02/13 15:59:06;;;;;;;19.02;5.30;;;16.70;31.20;;;;;;7571009;23;20512;-65
2023/02/13 16:02:17;;;;;;;16.58;5.40;;;16.70;31.20;;;;;;7543646;23;20073;-67
2023/02/13 16:05:18;;;;;;;14.57;5.82;;;16.60;31.10;;;;;;7568659;23;20006;-67
2023/02/13 16:08:30;;;;;;;12.25;5.82;;;16.60;31.20;;;;;;7568122;23;20011;-68
2023/02/13 16:11:34;;;;;;;16.88;5.47;;;16.50;31.30;;;;;;7568244;23;20093;-67
2023/02/13 16:14:46;;;;;;;10.68;4.47;;;16.50;31.40;;;;;;7568519;23;20081;-68
2023/02/13 16:17:48;;;;;;;11.63;5.68;;;16.50;31.60;;;;;;7541856;23;20329;-66
2023/02/13 16:20:54;;;;;;;13.15;5.20;;;16.40;31.70;;;;;;7568031;23;20028;-67
2023/02/13 16:24:07;;;;;;;11.32;5.45;;;16.30;31.70;;;;;;7542470;23;20002;-67
2023/02/13 16:27:16;;;;;;;10.10;5.32;;;16.30;31.90;;;;;;7542034;23;20011;-68
2023/02/13 16:30:28;;;;;;;15.93;6.05;;;16.10;31.90;;;;;;7542750;23;20017;-67
2023/02/13 16:33:30;;;;;;;17.33;5.88;;;16.10;32.00;;;;;;7567993;23;20006;-66
2023/02/13 16:36:33;;;;;;;18.27;5.32;;;16.10;32.10;;;;;;7542264;23;20021;-68
2023/02/13 16:39:34;;;;;;;16.92;5.53;;;16.00;32.20;;;;;;7553378;23;20078;-67
2023/02/13 16:42:35;;;;;;;24.85;7.25;;;15.90;32.30;;;;;;7568045;23;20305;-66
2023/02/13 16:45:37;;;;;;;15.20;6.18;;;15.80;32.40;;;;;;7566406;23;20011;-66
2023/02/13 16:48:38;;;;;;;19.90;6.80;;;15.70;32.50;;;;;;7566414;23;20034;-66
2023/02/13 16:52:20;;;;;;;22.75;6.60;;;15.70;32.70;;;;;;7572773;23;20004;-66